createdAt,value
2017-08-10T00:00:18.121Z,25.30
2017-08-10T00:02:50.276Z,25.36
2017-08-10T00:05:23.693Z,25.25
2017-08-10T00:07:57.932Z,25.35
2017-08-10T00:10:29.587Z,25.29
2017-08-10T00:13:03.534Z,25.18
2017-08-10T00:15:36.448Z,25.34
2017-08-10T00:18:08.544Z,25.33
2017-08-10T00:20:40.469Z,25.33
2017-08-10T00:23:12.655Z,25.32
2017-08-10T00:25:44.549Z,25.32
2017-08-10T00:28:16.500Z,25.31
2017-08-10T00:30:48.649Z,25.30
2017-08-10T00:33:20.458Z,25.29
2017-08-10T00:35:53.478Z,25.31
2017-08-10T00:38:26.594Z,25.24
2017-08-10T00:41:00.376Z,25.30
2017-08-10T00:43:32.310Z,25.30
2017-08-10T00:46:04.592Z,25.29
2017-08-10T00:48:36.353Z,25.29
2017-08-10T00:51:08.536Z,25.29
2017-08-10T00:53:40.358Z,25.28
2017-08-10T00:56:12.522Z,25.28
2017-08-10T00:58:45.207Z,25.28
2017-08-10T01:01:19.961Z,25.27
2017-08-10T01:03:51.718Z,25.24
2017-08-10T01:06:24.101Z,25.26
2017-08-10T01:08:58.699Z,25.26
2017-08-10T01:11:31.142Z,25.20
2017-08-10T01:14:08.256Z,25.09
2017-08-10T01:16:40.869Z,25.25
2017-08-10T01:19:12.706Z,25.24
2017-08-10T01:21:45.738Z,25.24
2017-08-10T01:24:18.785Z,25.24
2017-08-10T01:26:50.672Z,25.23
2017-08-10T01:29:23.553Z,25.18
2017-08-10T01:32:00.214Z,25.23
2017-08-10T01:34:32.801Z,25.23
2017-08-10T01:37:05.151Z,25.20
2017-08-10T01:39:36.857Z,25.15
2017-08-10T01:42:08.613Z,25.19
2017-08-10T01:44:40.302Z,25.19
2017-08-10T01:47:12.125Z,25.19
2017-08-10T01:49:44.767Z,25.19
2017-08-10T01:52:16.549Z,25.18
2017-08-10T01:54:48.788Z,25.18
2017-08-10T01:57:20.903Z,25.17
2017-08-10T01:59:52.843Z,25.16
2017-08-10T02:02:24.958Z,25.17
2017-08-10T02:04:59.016Z,25.10
2017-08-10T02:07:32.701Z,25.16
2017-08-10T02:10:04.388Z,25.11
2017-08-10T02:12:35.744Z,25.15
2017-08-10T02:15:07.974Z,25.14
2017-08-10T02:17:39.744Z,25.13
2017-08-10T02:20:11.590Z,25.13
2017-08-10T02:22:44.971Z,25.13
2017-08-10T02:25:16.806Z,25.12
2017-08-10T02:27:48.134Z,25.11
2017-08-10T02:30:21.058Z,25.11
2017-08-10T02:32:53.037Z,25.11
2017-08-10T02:35:28.398Z,25.09
2017-08-10T02:38:04.464Z,25.10
2017-08-10T02:40:41.105Z,25.10
2017-08-10T02:43:26.720Z,25.09
2017-08-10T02:46:01.509Z,25.08
2017-08-10T02:48:33.705Z,25.07
2017-08-10T02:51:05.899Z,25.06
2017-08-10T02:53:40.451Z,25.07
2017-08-10T02:56:12.608Z,25.05
2017-08-10T02:58:44.631Z,24.99
2017-08-10T03:01:16.810Z,25.04
2017-08-10T03:03:48.545Z,25.04
2017-08-10T03:06:21.510Z,25.05
2017-08-10T03:08:54.080Z,25.02
2017-08-10T03:11:25.754Z,25.04
2017-08-10T03:13:59.749Z,25.04
2017-08-10T03:16:33.747Z,24.98
2017-08-10T03:19:07.042Z,24.96
2017-08-10T03:21:38.838Z,25.02
2017-08-10T03:24:11.421Z,24.86
2017-08-10T03:26:44.098Z,24.89
2017-08-10T03:29:15.538Z,25.00
2017-08-10T03:31:48.430Z,24.94
2017-08-10T03:34:22.359Z,25.00
2017-08-10T03:36:58.371Z,24.98
2017-08-10T03:39:31.155Z,24.99
2017-08-10T03:42:04.239Z,24.76
2017-08-10T03:44:35.754Z,24.98
2017-08-10T03:47:07.632Z,24.96
2017-08-10T03:49:39.498Z,24.98
2017-08-10T03:52:13.755Z,24.96
2017-08-10T03:54:45.948Z,24.96
2017-08-10T03:57:21.196Z,24.96
2017-08-10T03:59:58.522Z,24.95
2017-08-10T04:02:31.486Z,24.94
2017-08-10T04:05:03.937Z,24.78
2017-08-10T04:07:35.719Z,24.89
2017-08-10T04:10:07.898Z,24.88
2017-08-10T04:12:40.576Z,24.88
2017-08-10T04:15:14.566Z,24.92
2017-08-10T04:17:46.915Z,24.92
2017-08-10T04:20:18.989Z,24.86
2017-08-10T04:22:50.728Z,24.86
2017-08-10T04:25:22.651Z,24.90
2017-08-10T04:28:00.183Z,24.84
2017-08-10T04:30:32.298Z,24.89
2017-08-10T04:33:06.183Z,24.85
2017-08-10T04:35:38.419Z,24.89
2017-08-10T04:38:11.052Z,24.89
2017-08-10T04:40:43.426Z,24.83
2017-08-10T04:43:16.267Z,24.87
2017-08-10T04:45:53.648Z,24.88
2017-08-10T04:48:29.206Z,24.88
2017-08-10T04:51:06.659Z,24.87
2017-08-10T04:53:43.002Z,24.75
2017-08-10T04:56:16.931Z,24.80
2017-08-10T04:58:49.976Z,24.85
2017-08-10T05:01:21.907Z,24.86
2017-08-10T05:04:06.677Z,24.81
2017-08-10T05:06:45.027Z,24.85
2017-08-10T05:09:22.869Z,24.72
2017-08-10T05:12:07.333Z,24.84
2017-08-10T05:14:39.057Z,24.73
2017-08-10T05:17:26.995Z,24.79
2017-08-10T05:20:08.117Z,24.84
2017-08-10T05:22:43.586Z,24.83
2017-08-10T05:25:25.552Z,24.82
2017-08-10T05:28:08.528Z,24.83
2017-08-10T05:30:42.990Z,24.76
2017-08-10T05:33:16.340Z,24.82
2017-08-10T05:35:49.374Z,24.81
2017-08-10T05:38:21.664Z,24.75
2017-08-10T05:40:53.981Z,24.82
2017-08-10T05:43:26.663Z,24.83
2017-08-10T05:46:01.061Z,24.71
2017-08-10T05:48:33.209Z,24.84
2017-08-10T05:51:05.594Z,24.84
2017-08-10T05:53:38.166Z,24.83
2017-08-10T05:56:11.077Z,24.84
2017-08-10T05:58:43.346Z,24.78
2017-08-10T06:01:15.164Z,24.85
2017-08-10T06:03:47.261Z,24.85
2017-08-10T06:06:20.812Z,24.86
2017-08-10T06:08:55.686Z,24.85
2017-08-10T06:11:29.369Z,24.79
2017-08-10T06:14:07.840Z,24.45
2017-08-10T06:16:39.666Z,24.86
2017-08-10T06:19:13.292Z,24.69
2017-08-10T06:21:44.595Z,24.88
2017-08-10T06:24:18.692Z,24.87
2017-08-10T06:26:51.467Z,24.88
2017-08-10T06:29:24.892Z,24.88
2017-08-10T06:31:59.732Z,24.88
2017-08-10T06:34:31.920Z,24.87
2017-08-10T06:37:06.252Z,24.71
2017-08-10T06:39:38.259Z,24.87
2017-08-10T06:42:11.016Z,24.70
2017-08-10T06:44:46.341Z,24.87
2017-08-10T06:47:19.402Z,24.74
2017-08-10T06:49:51.351Z,24.82
2017-08-10T06:52:24.101Z,24.87
2017-08-10T06:55:00.330Z,24.88
2017-08-10T06:57:34.132Z,24.88
2017-08-10T07:00:10.939Z,24.70
2017-08-10T07:02:51.333Z,24.71
2017-08-10T07:05:23.403Z,24.89
2017-08-10T07:08:03.445Z,24.81
2017-08-10T07:10:42.779Z,24.89
2017-08-10T07:13:23.615Z,24.88
2017-08-10T07:16:11.001Z,24.88
2017-08-10T07:18:48.481Z,24.87
2017-08-10T07:24:08.310Z,24.86
2017-08-10T07:26:44.211Z,24.85
2017-08-10T07:29:22.299Z,24.80
2017-08-10T07:31:59.821Z,24.86
2017-08-10T07:34:33.002Z,24.81
2017-08-10T07:37:10.633Z,24.85
2017-08-10T07:39:48.000Z,24.65
2017-08-10T07:42:23.032Z,24.82
2017-08-10T07:45:04.164Z,24.65
2017-08-10T07:47:38.284Z,24.57
2017-08-10T07:50:17.487Z,24.69
2017-08-10T07:52:53.885Z,24.80
2017-08-10T07:55:30.673Z,24.79
2017-08-10T08:01:09.907Z,24.79
2017-08-10T08:07:19.094Z,24.78
2017-08-10T08:10:29.987Z,24.78
2017-08-10T08:16:01.692Z,24.79
2017-08-10T08:18:39.194Z,24.78
2017-08-10T08:21:16.011Z,24.78
2017-08-10T08:23:49.381Z,24.78
2017-08-10T08:26:23.405Z,24.60
2017-08-10T08:29:02.234Z,24.66
2017-08-10T08:31:35.911Z,24.76
2017-08-10T08:34:30.428Z,24.58
2017-08-10T08:37:17.683Z,24.43
2017-08-10T08:42:36.472Z,24.76
2017-08-10T08:45:10.679Z,24.69
2017-08-10T08:47:49.195Z,24.64
2017-08-10T08:50:20.913Z,24.76
2017-08-10T08:52:54.007Z,24.64
2017-08-10T08:55:31.428Z,24.57
2017-08-10T08:58:08.178Z,24.56
2017-08-10T09:00:51.296Z,24.57
2017-08-10T09:03:38.267Z,24.46
2017-08-10T09:06:16.555Z,24.53
2017-08-10T09:08:48.133Z,24.71
2017-08-10T09:11:27.968Z,24.76
2017-08-10T09:14:00.688Z,24.76
2017-08-10T09:16:33.807Z,24.69
2017-08-10T09:19:06.252Z,24.51
2017-08-10T09:21:38.165Z,24.58
2017-08-10T09:24:11.157Z,24.57
2017-08-10T09:26:43.477Z,24.55
2017-08-10T09:29:15.012Z,24.48
2017-08-10T09:31:48.386Z,24.42
2017-08-10T09:34:31.940Z,24.34
2017-08-10T09:37:04.291Z,24.27
2017-08-10T09:39:38.561Z,24.23
2017-08-10T09:42:14.718Z,24.22
2017-08-10T09:44:46.206Z,24.19
2017-08-10T09:47:18.305Z,24.18
2017-08-10T09:49:51.406Z,24.09
2017-08-10T09:52:23.410Z,24.15
2017-08-10T09:54:58.322Z,24.08
2017-08-10T09:57:30.978Z,24.08
2017-08-10T10:00:05.567Z,24.05
2017-08-10T10:02:39.717Z,24.08
2017-08-10T10:05:13.688Z,23.86
2017-08-10T10:07:45.411Z,24.12
2017-08-10T10:10:17.393Z,24.14
2017-08-10T10:12:49.423Z,24.08
2017-08-10T10:15:24.381Z,24.15
2017-08-10T10:18:01.762Z,24.17
2017-08-10T10:20:35.125Z,24.13
2017-08-10T10:23:12.023Z,24.09
2017-08-10T10:25:44.963Z,24.18
2017-08-10T10:28:17.974Z,24.25
2017-08-10T10:30:49.589Z,24.23
2017-08-10T10:33:21.825Z,24.24
2017-08-10T10:38:33.132Z,24.25
2017-08-10T10:41:12.328Z,24.25
2017-08-10T10:43:47.873Z,24.25
2017-08-10T10:46:30.038Z,24.14
2017-08-10T10:49:08.438Z,24.10
2017-08-10T10:51:41.270Z,24.27
2017-08-10T10:54:17.855Z,24.14
2017-08-10T10:56:49.941Z,24.26
2017-08-10T10:59:22.245Z,24.25
2017-08-10T11:01:57.944Z,24.25
2017-08-10T11:04:30.645Z,24.23
2017-08-10T11:07:03.138Z,24.20
2017-08-10T11:09:34.646Z,24.22
2017-08-10T11:12:06.724Z,24.23
2017-08-10T11:14:39.020Z,24.20
2017-08-10T11:17:12.202Z,24.21
2017-08-10T11:19:45.912Z,24.22
2017-08-10T11:22:18.207Z,24.23
2017-08-10T11:24:59.204Z,24.18
2017-08-10T11:27:33.786Z,24.24
2017-08-10T11:30:08.404Z,24.26
2017-08-10T11:32:41.909Z,24.21
2017-08-10T11:35:13.854Z,24.26
2017-08-10T11:37:46.804Z,24.26
2017-08-10T11:40:20.786Z,24.26
2017-08-10T11:42:52.364Z,24.27
2017-08-10T11:45:23.966Z,24.29
2017-08-10T11:47:59.060Z,24.30
2017-08-10T11:50:31.734Z,24.30
2017-08-10T11:53:03.856Z,24.16
2017-08-10T11:55:37.887Z,24.22
2017-08-10T11:58:10.039Z,24.29
2017-08-10T12:00:42.471Z,24.27
2017-08-10T12:03:14.631Z,24.24
2017-08-10T12:05:47.826Z,24.26
2017-08-10T12:08:20.562Z,24.27
2017-08-10T12:10:53.027Z,24.22
2017-08-10T12:13:25.746Z,24.29
2017-08-10T12:15:59.769Z,24.24
2017-08-10T12:18:33.111Z,24.29
2017-08-10T12:21:05.852Z,24.29
2017-08-10T12:23:38.739Z,24.30
2017-08-10T12:26:12.046Z,24.29
2017-08-10T12:28:44.604Z,24.18
2017-08-10T12:31:17.693Z,24.23
2017-08-10T12:33:49.531Z,24.22
2017-08-10T12:36:24.457Z,24.26
2017-08-10T12:39:03.240Z,24.28
2017-08-10T12:41:36.360Z,24.28
2017-08-10T12:44:08.749Z,24.28
2017-08-10T12:46:40.382Z,24.27
2017-08-10T12:49:12.959Z,24.22
2017-08-10T12:51:45.579Z,24.17
2017-08-10T12:54:20.106Z,24.23
2017-08-10T12:56:52.246Z,24.28
2017-08-10T12:59:25.137Z,24.28
2017-08-10T13:02:00.448Z,24.29
2017-08-10T13:04:32.978Z,24.28
2017-08-10T13:07:04.601Z,24.27
2017-08-10T13:09:36.458Z,24.27
2017-08-10T13:12:08.750Z,24.28
2017-08-10T13:14:40.937Z,24.29
2017-08-10T13:17:13.126Z,24.28
2017-08-10T13:19:45.282Z,24.27
2017-08-10T13:22:20.706Z,24.28
2017-08-10T13:24:54.026Z,24.23
2017-08-10T13:27:25.705Z,24.27
2017-08-10T13:30:02.341Z,24.26
2017-08-10T13:32:48.595Z,24.27
2017-08-10T13:35:30.728Z,24.21
2017-08-10T13:38:03.786Z,24.08
2017-08-10T13:40:36.960Z,24.25
2017-08-10T13:43:09.048Z,24.09
2017-08-10T13:45:41.485Z,24.26
2017-08-10T13:48:13.199Z,24.14
2017-08-10T13:50:44.888Z,24.25
2017-08-10T13:53:16.408Z,24.20
2017-08-10T13:55:50.261Z,24.20
2017-08-10T13:58:23.577Z,24.16
2017-08-10T14:00:59.723Z,24.27
2017-08-10T14:03:32.590Z,24.23
2017-08-10T14:06:04.785Z,24.18
2017-08-10T14:08:39.887Z,24.31
2017-08-10T14:11:11.917Z,24.30
2017-08-10T14:13:45.271Z,24.25
2017-08-10T14:16:18.538Z,24.26
2017-08-10T14:18:51.089Z,24.32
2017-08-10T14:21:27.046Z,24.33
2017-08-10T14:24:07.290Z,24.32
2017-08-10T14:26:42.286Z,24.33
2017-08-10T14:29:38.381Z,24.32
2017-08-10T14:32:11.189Z,24.33
2017-08-10T14:34:47.228Z,24.23
2017-08-10T14:37:28.329Z,24.33
2017-08-10T14:40:04.067Z,24.33
2017-08-10T14:45:28.915Z,24.34
2017-08-10T14:48:01.617Z,24.34
2017-08-10T14:50:40.184Z,24.34
2017-08-10T14:53:13.442Z,24.34
2017-08-10T14:55:47.180Z,24.34
2017-08-10T14:58:20.312Z,24.35
2017-08-10T15:00:53.116Z,24.34
2017-08-10T15:03:27.422Z,24.34
2017-08-10T15:06:02.009Z,24.28
2017-08-10T15:08:38.445Z,24.35
2017-08-10T15:11:58.013Z,23.98
2017-08-10T15:14:31.395Z,24.36
2017-08-10T15:17:04.819Z,24.19
2017-08-10T15:19:36.936Z,24.30
2017-08-10T15:22:10.084Z,24.37
2017-08-10T15:24:41.961Z,24.37
2017-08-10T15:27:14.828Z,24.39
2017-08-10T15:29:46.779Z,24.40
2017-08-10T15:32:19.925Z,24.41
2017-08-10T15:34:53.006Z,24.35
2017-08-10T15:37:26.104Z,24.43
2017-08-10T15:40:01.572Z,24.42
2017-08-10T15:42:32.909Z,24.42
2017-08-10T15:45:09.783Z,24.42
2017-08-10T15:47:49.586Z,24.41
2017-08-10T15:50:22.245Z,24.35
2017-08-10T15:53:00.300Z,24.36
2017-08-10T15:55:37.902Z,24.40
2017-08-10T15:58:10.901Z,24.38
2017-08-10T16:00:44.397Z,24.38
2017-08-10T16:03:19.705Z,24.34
2017-08-10T16:05:54.016Z,24.34
2017-08-10T16:08:37.725Z,24.34
2017-08-10T16:11:11.293Z,24.34
2017-08-10T16:13:50.566Z,24.40
2017-08-10T16:16:25.441Z,24.39
2017-08-10T16:19:03.773Z,24.39
2017-08-10T16:21:37.900Z,24.40
2017-08-10T16:24:09.903Z,24.40
2017-08-10T16:26:42.693Z,24.41
2017-08-10T16:29:14.617Z,24.41
2017-08-10T16:31:47.512Z,24.41
2017-08-10T16:34:19.588Z,24.41
2017-08-10T16:36:51.680Z,24.42
2017-08-10T16:39:28.998Z,24.34
2017-08-10T16:42:07.596Z,24.41
2017-08-10T16:44:52.254Z,24.39
2017-08-10T16:47:34.791Z,24.40
2017-08-10T16:50:18.304Z,24.36
2017-08-10T16:52:59.519Z,24.41
2017-08-10T16:55:34.654Z,24.18
2017-08-10T16:58:08.321Z,24.34
2017-08-10T17:00:42.629Z,24.39
2017-08-10T17:03:17.880Z,24.39
2017-08-10T17:05:50.485Z,24.39
2017-08-10T17:08:22.523Z,24.39
2017-08-10T17:10:59.092Z,24.39
2017-08-10T17:13:31.431Z,24.39
2017-08-10T17:16:07.498Z,24.05
2017-08-10T17:18:40.551Z,24.40
2017-08-10T17:21:13.024Z,24.40
2017-08-10T17:23:46.508Z,24.40
2017-08-10T17:26:20.142Z,24.40
2017-08-10T17:28:54.196Z,24.29
2017-08-10T17:31:27.067Z,24.41
2017-08-10T17:34:02.728Z,24.41
2017-08-10T17:36:34.973Z,24.35
2017-08-10T17:39:14.838Z,24.40
2017-08-10T17:41:46.861Z,24.42
2017-08-10T17:44:23.020Z,24.40
2017-08-10T17:46:58.005Z,24.40
2017-08-10T17:49:31.693Z,24.34
2017-08-10T17:52:06.338Z,24.29
2017-08-10T17:54:42.888Z,24.39
2017-08-10T17:57:14.664Z,24.40
2017-08-10T17:59:48.123Z,24.39
2017-08-10T18:02:24.642Z,24.27
2017-08-10T18:04:58.168Z,24.38
2017-08-10T18:07:32.253Z,24.37
2017-08-10T18:10:06.872Z,24.38
2017-08-10T18:12:44.535Z,24.37
2017-08-10T18:15:27.355Z,24.38
2017-08-10T18:18:03.798Z,24.36
2017-08-10T18:21:06.996Z,24.37
2017-08-10T18:23:42.251Z,24.37
2017-08-10T18:26:18.693Z,24.31
2017-08-10T18:28:51.814Z,24.31
2017-08-10T18:31:28.885Z,24.36
2017-08-10T18:34:04.473Z,24.37
2017-08-10T18:36:37.588Z,24.37
2017-08-10T18:39:10.368Z,24.31
2017-08-10T18:41:45.167Z,24.36
2017-08-10T18:44:17.939Z,24.30
2017-08-10T18:46:51.850Z,24.35
2017-08-10T18:49:26.610Z,24.35
2017-08-10T18:52:03.971Z,24.35
2017-08-10T18:54:39.887Z,24.34
2017-08-10T18:57:12.263Z,24.34
2017-08-10T18:59:44.036Z,24.28
2017-08-10T19:02:16.997Z,24.34
2017-08-10T19:04:49.268Z,24.33
2017-08-10T19:07:22.459Z,24.32
2017-08-10T19:09:56.926Z,24.25
2017-08-10T19:12:31.506Z,24.20
2017-08-10T19:15:07.258Z,24.14
2017-08-10T19:17:38.899Z,24.14
2017-08-10T19:20:14.838Z,24.29
2017-08-10T19:22:46.646Z,24.26
2017-08-10T19:25:20.505Z,24.15
2017-08-10T19:27:52.041Z,24.18
2017-08-10T19:30:23.825Z,24.12
2017-08-10T19:33:01.463Z,24.09
2017-08-10T19:35:34.485Z,24.19
2017-08-10T19:38:08.535Z,24.14
2017-08-10T19:40:41.447Z,24.19
2017-08-10T19:43:13.083Z,24.19
2017-08-10T19:45:45.599Z,24.08
2017-08-10T19:48:20.530Z,24.20
2017-08-10T19:50:53.575Z,24.19
2017-08-10T19:53:26.228Z,24.08
2017-08-10T19:56:01.603Z,24.10
2017-08-10T19:58:34.003Z,24.21
2017-08-10T20:01:10.668Z,24.03
2017-08-10T20:03:44.917Z,24.15
2017-08-10T20:06:21.791Z,24.21
2017-08-10T20:09:07.898Z,24.20
2017-08-10T20:11:43.122Z,24.21
2017-08-10T20:14:15.755Z,24.21
2017-08-10T20:16:49.464Z,24.21
2017-08-10T20:19:21.550Z,24.21
2017-08-10T20:21:59.436Z,24.16
2017-08-10T20:24:43.938Z,24.21
2017-08-10T20:27:33.414Z,24.16
2017-08-10T20:30:08.605Z,24.15
2017-08-10T20:32:41.519Z,24.15
2017-08-10T20:35:16.287Z,24.21
2017-08-10T20:37:48.625Z,24.10
2017-08-10T20:40:21.123Z,24.21
2017-08-10T20:44:15.580Z,24.10
2017-08-10T20:47:13.737Z,23.85
2017-08-10T20:55:10.165Z,24.22
2017-08-10T20:57:42.691Z,24.21
2017-08-10T21:00:14.831Z,24.20
2017-08-10T21:02:47.536Z,24.20
2017-08-10T21:05:20.047Z,24.20
2017-08-10T21:07:51.607Z,24.21
2017-08-10T21:10:23.945Z,24.04
2017-08-10T21:12:57.741Z,24.14
2017-08-10T21:15:29.541Z,24.20
2017-08-10T21:18:01.384Z,24.08
2017-08-10T21:20:33.414Z,24.14
2017-08-10T21:23:05.324Z,24.19
2017-08-10T21:25:41.490Z,24.19
2017-08-10T21:28:16.367Z,24.17
2017-08-10T21:30:48.132Z,24.17
2017-08-10T21:33:19.851Z,24.17
2017-08-10T21:35:52.763Z,24.16
2017-08-10T21:38:25.143Z,24.15
2017-08-10T21:40:56.573Z,24.15
2017-08-10T21:43:30.358Z,24.15
2017-08-10T21:46:02.026Z,23.97
2017-08-10T21:48:34.300Z,24.14
2017-08-10T21:51:06.529Z,24.08
2017-08-10T21:53:38.755Z,24.14
2017-08-10T21:56:11.360Z,24.14
2017-08-10T21:58:43.298Z,24.14
2017-08-10T22:01:15.020Z,24.13
2017-08-10T22:03:46.945Z,24.13
2017-08-10T22:06:20.283Z,24.13
2017-08-10T22:08:52.507Z,24.13
2017-08-10T22:11:26.111Z,24.13
2017-08-10T22:13:59.215Z,24.12
2017-08-10T22:16:32.261Z,24.12
2017-08-10T22:19:04.739Z,24.11
2017-08-10T22:21:36.574Z,24.11
2017-08-10T22:24:08.409Z,24.11
2017-08-10T22:26:41.025Z,24.10
2017-08-10T22:29:12.635Z,24.10
2017-08-10T22:31:44.312Z,24.03
2017-08-10T22:34:16.733Z,24.08
2017-08-10T22:36:50.694Z,24.09
2017-08-10T22:39:24.184Z,24.06
2017-08-10T22:41:59.640Z,23.95
2017-08-10T22:44:33.947Z,24.07
2017-08-10T22:47:09.034Z,24.07
2017-08-10T22:49:40.431Z,24.06
2017-08-10T22:52:12.056Z,24.06
2017-08-10T22:54:43.977Z,24.06
2017-08-10T22:57:17.615Z,24.05
2017-08-10T22:59:50.859Z,24.05
2017-08-10T23:02:23.406Z,23.99
2017-08-10T23:04:57.156Z,24.04
2017-08-10T23:07:28.765Z,24.04
2017-08-10T23:10:01.159Z,24.02
2017-08-10T23:12:33.527Z,24.03
2017-08-10T23:15:05.622Z,23.95
2017-08-10T23:17:37.529Z,23.96
2017-08-10T23:20:09.201Z,24.01
2017-08-10T23:22:41.601Z,24.02
2017-08-10T23:25:13.871Z,24.01
2017-08-10T23:27:45.260Z,24.01
2017-08-10T23:30:16.740Z,24.01
2017-08-10T23:32:49.718Z,24.00
2017-08-10T23:35:21.296Z,24.00
2017-08-10T23:37:53.426Z,23.94
2017-08-10T23:40:29.363Z,23.98
2017-08-10T23:43:01.551Z,23.98
2017-08-10T23:45:33.894Z,23.69
2017-08-10T23:48:05.474Z,23.98
2017-08-10T23:50:37.089Z,23.92
2017-08-10T23:53:09.631Z,23.98
2017-08-10T23:55:42.375Z,23.97
2017-08-10T23:58:15.019Z,23.97
